sensor_id;sensor_type;location;lat;lon;timestamp;P1;durP1;ratioP1;P2;durP2;ratioP2
34296;SDS011;20564;42.902;25.336;2022-10-22T00:00:36;4.38;;;1.65;;
34296;SDS011;20564;42.902;25.336;2022-10-22T00:03:04;2.25;;;0.93;;
34296;SDS011;20564;42.902;25.336;2022-10-22T00:05:31;4.55;;;1.67;;
34296;SDS011;20564;42.902;25.336;2022-10-22T00:08:03;6.95;;;2.42;;
34296;SDS011;20564;42.902;25.336;2022-10-22T00:10:30;2.63;;;1.33;;
34296;SDS011;20564;42.902;25.336;2022-10-22T00:12:57;3.65;;;2.08;;
34296;SDS011;20564;42.902;25.336;2022-10-22T00:15:24;2.40;;;1.37;;
34296;SDS011;20564;42.902;25.336;2022-10-22T00:17:51;6.28;;;2.15;;
34296;SDS011;20564;42.902;25.336;2022-10-22T00:20:18;9.30;;;2.00;;
34296;SDS011;20564;42.902;25.336;2022-10-22T00:22:46;1.88;;;1.17;;
34296;SDS011;20564;42.902;25.336;2022-10-22T00:25:13;2.17;;;1.43;;
34296;SDS011;20564;42.902;25.336;2022-10-22T00:27:40;1.67;;;1.08;;
34296;SDS011;20564;42.902;25.336;2022-10-22T00:30:08;4.93;;;1.67;;
34296;SDS011;20564;42.902;25.336;2022-10-22T00:32:37;3.88;;;1.98;;
34296;SDS011;20564;42.902;25.336;2022-10-22T00:35:05;9.40;;;2.15;;
34296;SDS011;20564;42.902;25.336;2022-10-22T00:37:33;4.40;;;1.45;;
34296;SDS011;20564;42.902;25.336;2022-10-22T00:40:00;5.30;;;1.65;;
34296;SDS011;20564;42.902;25.336;2022-10-22T00:42:27;4.18;;;2.13;;
34296;SDS011;20564;42.902;25.336;2022-10-22T00:47:35;4.15;;;2.05;;
34296;SDS011;20564;42.902;25.336;2022-10-22T00:50:07;4.60;;;2.63;;
34296;SDS011;20564;42.902;25.336;2022-10-22T00:52:38;3.88;;;1.60;;
34296;SDS011;20564;42.902;25.336;2022-10-22T00:55:06;3.78;;;2.08;;
34296;SDS011;20564;42.902;25.336;2022-10-22T00:57:33;6.05;;;2.08;;
34296;SDS011;20564;42.902;25.336;2022-10-22T01:00:02;3.30;;;1.92;;
34296;SDS011;20564;42.902;25.336;2022-10-22T01:02:30;2.20;;;1.75;;
34296;SDS011;20564;42.902;25.336;2022-10-22T01:04:58;3.80;;;1.60;;
34296;SDS011;20564;42.902;25.336;2022-10-22T01:07:25;2.50;;;1.23;;
34296;SDS011;20564;42.902;25.336;2022-10-22T01:15:21;2.28;;;1.33;;
34296;SDS011;20564;42.902;25.336;2022-10-22T01:20:40;5.78;;;2.75;;
34296;SDS011;20564;42.902;25.336;2022-10-22T01:26:23;3.22;;;1.42;;
34296;SDS011;20564;42.902;25.336;2022-10-22T01:28:56;3.33;;;1.05;;
34296;SDS011;20564;42.902;25.336;2022-10-22T01:31:29;2.38;;;1.33;;
34296;SDS011;20564;42.902;25.336;2022-10-22T01:34:00;3.95;;;1.98;;
34296;SDS011;20564;42.902;25.336;2022-10-22T01:36:29;3.78;;;1.45;;
34296;SDS011;20564;42.902;25.336;2022-10-22T01:38:59;4.65;;;1.85;;
34296;SDS011;20564;42.902;25.336;2022-10-22T01:41:27;4.00;;;1.90;;
34296;SDS011;20564;42.902;25.336;2022-10-22T01:43:55;4.30;;;1.35;;
34296;SDS011;20564;42.902;25.336;2022-10-22T01:46:23;3.30;;;1.15;;
34296;SDS011;20564;42.902;25.336;2022-10-22T02:05:02;2.95;;;0.90;;
34296;SDS011;20564;42.902;25.336;2022-10-22T02:07:36;3.03;;;1.52;;
34296;SDS011;20564;42.902;25.336;2022-10-22T02:10:09;2.33;;;1.20;;
34296;SDS011;20564;42.902;25.336;2022-10-22T02:12:37;2.70;;;1.30;;
34296;SDS011;20564;42.902;25.336;2022-10-22T02:15:07;3.10;;;1.33;;
34296;SDS011;20564;42.902;25.336;2022-10-22T02:17:36;7.20;;;2.55;;
34296;SDS011;20564;42.902;25.336;2022-10-22T02:20:06;3.58;;;2.00;;
34296;SDS011;20564;42.902;25.336;2022-10-22T02:22:38;2.03;;;1.27;;
34296;SDS011;20564;42.902;25.336;2022-10-22T02:25:06;2.83;;;1.58;;
34296;SDS011;20564;42.902;25.336;2022-10-22T02:30:12;4.28;;;1.85;;
34296;SDS011;20564;42.902;25.336;2022-10-22T02:35:30;3.38;;;1.70;;
34296;SDS011;20564;42.902;25.336;2022-10-22T02:37:57;2.15;;;1.33;;
34296;SDS011;20564;42.902;25.336;2022-10-22T02:40:26;5.55;;;1.55;;
34296;SDS011;20564;42.902;25.336;2022-10-22T02:42:55;3.05;;;1.67;;
34296;SDS011;20564;42.902;25.336;2022-10-22T02:45:23;3.03;;;0.93;;
34296;SDS011;20564;42.902;25.336;2022-10-22T02:47:50;3.03;;;1.48;;
34296;SDS011;20564;42.902;25.336;2022-10-22T02:50:17;5.95;;;2.00;;
34296;SDS011;20564;42.902;25.336;2022-10-22T02:52:44;4.57;;;2.17;;
34296;SDS011;20564;42.902;25.336;2022-10-22T02:55:14;3.15;;;1.17;;
34296;SDS011;20564;42.902;25.336;2022-10-22T02:57:41;2.33;;;1.10;;
34296;SDS011;20564;42.902;25.336;2022-10-22T03:00:09;2.58;;;1.70;;
34296;SDS011;20564;42.902;25.336;2022-10-22T03:05:04;3.15;;;1.63;;
34296;SDS011;20564;42.902;25.336;2022-10-22T03:07:31;3.33;;;1.63;;
34296;SDS011;20564;42.902;25.336;2022-10-22T03:09:58;3.80;;;2.00;;
34296;SDS011;20564;42.902;25.336;2022-10-22T03:12:26;3.38;;;1.83;;
34296;SDS011;20564;42.902;25.336;2022-10-22T03:14:53;1.20;;;0.90;;
34296;SDS011;20564;42.902;25.336;2022-10-22T03:17:20;2.17;;;1.02;;
34296;SDS011;20564;42.902;25.336;2022-10-22T03:19:47;2.63;;;0.98;;
34296;SDS011;20564;42.902;25.336;2022-10-22T03:22:16;2.08;;;1.10;;
34296;SDS011;20564;42.902;25.336;2022-10-22T03:24:49;1.92;;;1.33;;
34296;SDS011;20564;42.902;25.336;2022-10-22T03:27:21;4.05;;;2.13;;
34296;SDS011;20564;42.902;25.336;2022-10-22T03:29:49;4.10;;;1.25;;
34296;SDS011;20564;42.902;25.336;2022-10-22T03:32:18;4.50;;;2.00;;
34296;SDS011;20564;42.902;25.336;2022-10-22T03:34:45;3.67;;;2.15;;
34296;SDS011;20564;42.902;25.336;2022-10-22T03:37:13;2.75;;;1.52;;
34296;SDS011;20564;42.902;25.336;2022-10-22T03:39:40;4.15;;;1.65;;
34296;SDS011;20564;42.902;25.336;2022-10-22T03:42:07;0.98;;;0.68;;
34296;SDS011;20564;42.902;25.336;2022-10-22T03:44:35;2.35;;;1.45;;
34296;SDS011;20564;42.902;25.336;2022-10-22T03:47:04;3.40;;;1.60;;
34296;SDS011;20564;42.902;25.336;2022-10-22T03:49:31;4.60;;;1.55;;
34296;SDS011;20564;42.902;25.336;2022-10-22T03:52:11;2.65;;;0.95;;
34296;SDS011;20564;42.902;25.336;2022-10-22T03:54:39;2.17;;;1.08;;
34296;SDS011;20564;42.902;25.336;2022-10-22T03:57:08;2.38;;;1.13;;
34296;SDS011;20564;42.902;25.336;2022-10-22T03:59:36;0.82;;;0.60;;
34296;SDS011;20564;42.902;25.336;2022-10-22T04:02:05;1.33;;;0.90;;
34296;SDS011;20564;42.902;25.336;2022-10-22T04:04:32;3.60;;;1.40;;
34296;SDS011;20564;42.902;25.336;2022-10-22T04:06:59;5.43;;;1.80;;
34296;SDS011;20564;42.902;25.336;2022-10-22T04:09:26;2.85;;;1.48;;
34296;SDS011;20564;42.902;25.336;2022-10-22T04:11:56;4.13;;;1.55;;
34296;SDS011;20564;42.902;25.336;2022-10-22T04:14:23;4.73;;;1.97;;
34296;SDS011;20564;42.902;25.336;2022-10-22T04:16:50;1.05;;;0.95;;
34296;SDS011;20564;42.902;25.336;2022-10-22T04:19:18;2.03;;;1.02;;
34296;SDS011;20564;42.902;25.336;2022-10-22T04:21:45;2.33;;;0.90;;
34296;SDS011;20564;42.902;25.336;2022-10-22T04:24:11;7.13;;;2.42;;
34296;SDS011;20564;42.902;25.336;2022-10-22T04:26:39;1.48;;;0.70;;
34296;SDS011;20564;42.902;25.336;2022-10-22T04:29:06;2.80;;;0.90;;
34296;SDS011;20564;42.902;25.336;2022-10-22T04:31:40;0.80;;;0.80;;
34296;SDS011;20564;42.902;25.336;2022-10-22T04:34:07;3.17;;;1.37;;
34296;SDS011;20564;42.902;25.336;2022-10-22T04:36:34;2.38;;;1.15;;
34296;SDS011;20564;42.902;25.336;2022-10-22T04:39:02;1.45;;;1.00;;
34296;SDS011;20564;42.902;25.336;2022-10-22T04:41:32;4.93;;;2.25;;
34296;SDS011;20564;42.902;25.336;2022-10-22T04:44:04;5.88;;;4.45;;
34296;SDS011;20564;42.902;25.336;2022-10-22T04:46:40;13.43;;;5.80;;
34296;SDS011;20564;42.902;25.336;2022-10-22T04:49:07;14.07;;;7.03;;
34296;SDS011;20564;42.902;25.336;2022-10-22T04:51:34;13.18;;;5.13;;
34296;SDS011;20564;42.902;25.336;2022-10-22T04:54:01;4.20;;;2.40;;
34296;SDS011;20564;42.902;25.336;2022-10-22T04:56:29;7.10;;;3.70;;
34296;SDS011;20564;42.902;25.336;2022-10-22T04:58:58;3.63;;;1.65;;
34296;SDS011;20564;42.902;25.336;2022-10-22T05:01:28;3.72;;;1.80;;
34296;SDS011;20564;42.902;25.336;2022-10-22T05:09:05;2.08;;;0.75;;
34296;SDS011;20564;42.902;25.336;2022-10-22T05:11:35;4.45;;;1.88;;
34296;SDS011;20564;42.902;25.336;2022-10-22T05:14:04;5.70;;;1.38;;
34296;SDS011;20564;42.902;25.336;2022-10-22T05:16:33;2.47;;;1.38;;
34296;SDS011;20564;42.902;25.336;2022-10-22T05:19:01;3.72;;;0.93;;
34296;SDS011;20564;42.902;25.336;2022-10-22T05:21:29;5.00;;;1.65;;
34296;SDS011;20564;42.902;25.336;2022-10-22T05:23:56;2.08;;;1.17;;
34296;SDS011;20564;42.902;25.336;2022-10-22T05:26:27;0.75;;;0.55;;
34296;SDS011;20564;42.902;25.336;2022-10-22T05:28:55;2.20;;;1.35;;
34296;SDS011;20564;42.902;25.336;2022-10-22T05:31:23;3.42;;;1.48;;
34296;SDS011;20564;42.902;25.336;2022-10-22T05:33:50;2.60;;;1.50;;
34296;SDS011;20564;42.902;25.336;2022-10-22T05:36:18;3.17;;;1.53;;
34296;SDS011;20564;42.902;25.336;2022-10-22T05:38:46;3.53;;;0.93;;
34296;SDS011;20564;42.902;25.336;2022-10-22T05:41:16;2.40;;;1.05;;
34296;SDS011;20564;42.902;25.336;2022-10-22T05:43:44;2.17;;;0.88;;
34296;SDS011;20564;42.902;25.336;2022-10-22T05:46:13;2.83;;;1.33;;
34296;SDS011;20564;42.902;25.336;2022-10-22T05:48:50;4.10;;;1.45;;
34296;SDS011;20564;42.902;25.336;2022-10-22T05:51:19;3.67;;;2.20;;
34296;SDS011;20564;42.902;25.336;2022-10-22T05:53:50;4.38;;;1.50;;
34296;SDS011;20564;42.902;25.336;2022-10-22T05:56:19;2.83;;;1.60;;
34296;SDS011;20564;42.902;25.336;2022-10-22T05:58:47;2.17;;;1.30;;
34296;SDS011;20564;42.902;25.336;2022-10-22T06:01:15;3.58;;;1.02;;
34296;SDS011;20564;42.902;25.336;2022-10-22T06:03:44;1.85;;;1.02;;
34296;SDS011;20564;42.902;25.336;2022-10-22T06:08:51;5.85;;;2.25;;
34296;SDS011;20564;42.902;25.336;2022-10-22T06:11:20;4.65;;;2.63;;
34296;SDS011;20564;42.902;25.336;2022-10-22T06:13:49;3.08;;;1.90;;
34296;SDS011;20564;42.902;25.336;2022-10-22T06:16:16;3.88;;;1.92;;
34296;SDS011;20564;42.902;25.336;2022-10-22T06:18:44;3.22;;;1.90;;
34296;SDS011;20564;42.902;25.336;2022-10-22T06:21:12;5.15;;;2.22;;
34296;SDS011;20564;42.902;25.336;2022-10-22T06:23:40;5.30;;;2.38;;
34296;SDS011;20564;42.902;25.336;2022-10-22T06:26:08;5.05;;;1.73;;
34296;SDS011;20564;42.902;25.336;2022-10-22T06:28:36;3.67;;;1.65;;
34296;SDS011;20564;42.902;25.336;2022-10-22T06:31:04;18.27;;;2.42;;
34296;SDS011;20564;42.902;25.336;2022-10-22T06:36:06;2.78;;;1.35;;
34296;SDS011;20564;42.902;25.336;2022-10-22T06:38:35;6.40;;;1.67;;
34296;SDS011;20564;42.902;25.336;2022-10-22T06:41:03;5.90;;;2.72;;
34296;SDS011;20564;42.902;25.336;2022-10-22T06:43:31;5.20;;;2.55;;
34296;SDS011;20564;42.902;25.336;2022-10-22T06:46:02;4.30;;;1.53;;
34296;SDS011;20564;42.902;25.336;2022-10-22T06:48:32;3.85;;;1.20;;
34296;SDS011;20564;42.902;25.336;2022-10-22T06:51:02;5.22;;;1.85;;
34296;SDS011;20564;42.902;25.336;2022-10-22T06:53:30;4.40;;;2.05;;
34296;SDS011;20564;42.902;25.336;2022-10-22T06:55:58;1.88;;;1.10;;
34296;SDS011;20564;42.902;25.336;2022-10-22T06:58:30;3.75;;;1.88;;
34296;SDS011;20564;42.902;25.336;2022-10-22T07:01:06;4.68;;;1.55;;
34296;SDS011;20564;42.902;25.336;2022-10-22T07:03:34;2.88;;;1.35;;
34296;SDS011;20564;42.902;25.336;2022-10-22T07:06:03;1.23;;;0.77;;
34296;SDS011;20564;42.902;25.336;2022-10-22T07:08:32;4.05;;;1.60;;
34296;SDS011;20564;42.902;25.336;2022-10-22T07:11:09;3.40;;;1.42;;
34296;SDS011;20564;42.902;25.336;2022-10-22T07:13:48;3.65;;;1.75;;
34296;SDS011;20564;42.902;25.336;2022-10-22T07:18:43;3.60;;;1.83;;
34296;SDS011;20564;42.902;25.336;2022-10-22T07:21:11;2.70;;;1.08;;
34296;SDS011;20564;42.902;25.336;2022-10-22T07:23:39;3.13;;;1.85;;
34296;SDS011;20564;42.902;25.336;2022-10-22T07:26:06;2.33;;;1.40;;
34296;SDS011;20564;42.902;25.336;2022-10-22T07:28:35;5.10;;;2.05;;
34296;SDS011;20564;42.902;25.336;2022-10-22T07:31:12;4.90;;;1.52;;
34296;SDS011;20564;42.902;25.336;2022-10-22T07:33:40;3.15;;;1.50;;
34296;SDS011;20564;42.902;25.336;2022-10-22T07:36:07;3.88;;;1.35;;
34296;SDS011;20564;42.902;25.336;2022-10-22T07:38:36;3.53;;;1.35;;
34296;SDS011;20564;42.902;25.336;2022-10-22T07:41:03;2.23;;;1.27;;
34296;SDS011;20564;42.902;25.336;2022-10-22T07:43:31;3.75;;;1.77;;
34296;SDS011;20564;42.902;25.336;2022-10-22T07:45:58;3.67;;;1.48;;
34296;SDS011;20564;42.902;25.336;2022-10-22T07:48:25;6.00;;;2.85;;
34296;SDS011;20564;42.902;25.336;2022-10-22T07:50:53;5.43;;;2.20;;
34296;SDS011;20564;42.902;25.336;2022-10-22T07:53:20;3.47;;;1.75;;
34296;SDS011;20564;42.902;25.336;2022-10-22T07:55:50;5.72;;;2.30;;
34296;SDS011;20564;42.902;25.336;2022-10-22T07:58:18;4.55;;;1.73;;
34296;SDS011;20564;42.902;25.336;2022-10-22T08:00:46;4.10;;;2.03;;
34296;SDS011;20564;42.902;25.336;2022-10-22T08:03:15;2.88;;;1.30;;
34296;SDS011;20564;42.902;25.336;2022-10-22T08:05:44;3.88;;;1.20;;
34296;SDS011;20564;42.902;25.336;2022-10-22T08:08:11;6.25;;;1.92;;
34296;SDS011;20564;42.902;25.336;2022-10-22T08:10:41;4.45;;;1.73;;
34296;SDS011;20564;42.902;25.336;2022-10-22T08:15:40;3.47;;;1.25;;
34296;SDS011;20564;42.902;25.336;2022-10-22T08:18:13;5.03;;;2.35;;
34296;SDS011;20564;42.902;25.336;2022-10-22T08:20:42;3.90;;;1.63;;
34296;SDS011;20564;42.902;25.336;2022-10-22T08:23:10;5.15;;;1.60;;
34296;SDS011;20564;42.902;25.336;2022-10-22T08:25:38;2.67;;;1.48;;
34296;SDS011;20564;42.902;25.336;2022-10-22T08:28:05;1.85;;;1.15;;
34296;SDS011;20564;42.902;25.336;2022-10-22T08:30:33;3.63;;;1.27;;
34296;SDS011;20564;42.902;25.336;2022-10-22T08:33:04;3.10;;;1.50;;
34296;SDS011;20564;42.902;25.336;2022-10-22T08:35:31;2.40;;;0.98;;
34296;SDS011;20564;42.902;25.336;2022-10-22T08:37:59;2.92;;;0.85;;
34296;SDS011;20564;42.902;25.336;2022-10-22T08:40:33;2.95;;;0.95;;
34296;SDS011;20564;42.902;25.336;2022-10-22T08:45:40;3.83;;;1.38;;
34296;SDS011;20564;42.902;25.336;2022-10-22T08:51:18;7.60;;;1.60;;
34296;SDS011;20564;42.902;25.336;2022-10-22T08:57:00;3.60;;;1.50;;
34296;SDS011;20564;42.902;25.336;2022-10-22T08:59:43;2.55;;;1.23;;
34296;SDS011;20564;42.902;25.336;2022-10-22T09:02:34;3.65;;;0.90;;
34296;SDS011;20564;42.902;25.336;2022-10-22T09:08:12;3.65;;;1.08;;
34296;SDS011;20564;42.902;25.336;2022-10-22T09:10:54;4.07;;;1.20;;
34296;SDS011;20564;42.902;25.336;2022-10-22T09:13:28;2.25;;;0.90;;
34296;SDS011;20564;42.902;25.336;2022-10-22T09:16:00;2.25;;;0.88;;
34296;SDS011;20564;42.902;25.336;2022-10-22T09:24:39;2.58;;;1.27;;
34296;SDS011;20564;42.902;25.336;2022-10-22T09:27:16;3.47;;;1.30;;
34296;SDS011;20564;42.902;25.336;2022-10-22T09:29:49;4.68;;;1.50;;
34296;SDS011;20564;42.902;25.336;2022-10-22T09:32:16;3.08;;;1.38;;
34296;SDS011;20564;42.902;25.336;2022-10-22T09:34:44;2.60;;;1.35;;
34296;SDS011;20564;42.902;25.336;2022-10-22T09:37:12;2.78;;;1.52;;
34296;SDS011;20564;42.902;25.336;2022-10-22T09:39:45;3.25;;;1.27;;
34296;SDS011;20564;42.902;25.336;2022-10-22T09:42:14;2.72;;;1.13;;
34296;SDS011;20564;42.902;25.336;2022-10-22T09:44:43;4.38;;;1.65;;
34296;SDS011;20564;42.902;25.336;2022-10-22T09:47:30;5.47;;;2.67;;
34296;SDS011;20564;42.902;25.336;2022-10-22T09:53:03;4.32;;;2.10;;
34296;SDS011;20564;42.902;25.336;2022-10-22T09:55:49;3.70;;;1.77;;
34296;SDS011;20564;42.902;25.336;2022-10-22T09:58:18;4.22;;;1.60;;
34296;SDS011;20564;42.902;25.336;2022-10-22T10:00:47;2.25;;;1.42;;
34296;SDS011;20564;42.902;25.336;2022-10-22T10:03:21;4.90;;;1.73;;
34296;SDS011;20564;42.902;25.336;2022-10-22T10:06:07;2.25;;;0.90;;
34296;SDS011;20564;42.902;25.336;2022-10-22T10:08:34;2.55;;;1.10;;
34296;SDS011;20564;42.902;25.336;2022-10-22T10:11:04;3.15;;;1.55;;
34296;SDS011;20564;42.902;25.336;2022-10-22T10:13:46;4.13;;;1.45;;
34296;SDS011;20564;42.902;25.336;2022-10-22T10:25:00;2.83;;;1.10;;
34296;SDS011;20564;42.902;25.336;2022-10-22T10:30:32;2.17;;;0.90;;
34296;SDS011;20564;42.902;25.336;2022-10-22T10:33:20;3.40;;;1.00;;
34296;SDS011;20564;42.902;25.336;2022-10-22T10:38:59;1.90;;;0.75;;
34296;SDS011;20564;42.902;25.336;2022-10-22T10:41:42;3.90;;;1.25;;
34296;SDS011;20564;42.902;25.336;2022-10-22T10:53:02;0.80;;;0.50;;
34296;SDS011;20564;42.902;25.336;2022-10-22T10:55:58;1.75;;;0.68;;
34296;SDS011;20564;42.902;25.336;2022-10-22T11:04:40;1.35;;;1.00;;
34296;SDS011;20564;42.902;25.336;2022-10-22T11:07:37;1.00;;;0.60;;
34296;SDS011;20564;42.902;25.336;2022-10-22T11:12:54;1.73;;;0.68;;
34296;SDS011;20564;42.902;25.336;2022-10-22T11:15:33;2.08;;;0.80;;
34296;SDS011;20564;42.902;25.336;2022-10-22T11:18:07;2.00;;;0.60;;
34296;SDS011;20564;42.902;25.336;2022-10-22T11:26:09;1.13;;;0.70;;
34296;SDS011;20564;42.902;25.336;2022-10-22T11:28:42;1.20;;;0.70;;
34296;SDS011;20564;42.902;25.336;2022-10-22T11:31:15;1.83;;;0.80;;
34296;SDS011;20564;42.902;25.336;2022-10-22T11:33:51;1.88;;;0.93;;
34296;SDS011;20564;42.902;25.336;2022-10-22T11:36:59;2.47;;;1.10;;
34296;SDS011;20564;42.902;25.336;2022-10-22T11:42:18;2.83;;;1.65;;
34296;SDS011;20564;42.902;25.336;2022-10-22T11:47:25;2.78;;;1.35;;
34296;SDS011;20564;42.902;25.336;2022-10-22T12:03:47;2.22;;;0.82;;
34296;SDS011;20564;42.902;25.336;2022-10-22T12:06:20;0.77;;;0.55;;
34296;SDS011;20564;42.902;25.336;2022-10-22T12:16:52;2.00;;;0.82;;
34296;SDS011;20564;42.902;25.336;2022-10-22T12:19:27;2.85;;;0.93;;
34296;SDS011;20564;42.902;25.336;2022-10-22T12:22:18;1.40;;;0.57;;
34296;SDS011;20564;42.902;25.336;2022-10-22T12:24:53;0.97;;;0.60;;
34296;SDS011;20564;42.902;25.336;2022-10-22T12:27:32;0.75;;;0.47;;
34296;SDS011;20564;42.902;25.336;2022-10-22T12:30:15;1.27;;;0.63;;
34296;SDS011;20564;42.902;25.336;2022-10-22T12:32:56;1.60;;;0.93;;
34296;SDS011;20564;42.902;25.336;2022-10-22T12:35:28;3.22;;;1.10;;
34296;SDS011;20564;42.902;25.336;2022-10-22T12:37:59;1.25;;;0.68;;
34296;SDS011;20564;42.902;25.336;2022-10-22T12:40:29;2.05;;;0.70;;
34296;SDS011;20564;42.902;25.336;2022-10-22T12:45:43;1.33;;;0.68;;
34296;SDS011;20564;42.902;25.336;2022-10-22T12:48:14;1.02;;;0.63;;
34296;SDS011;20564;42.902;25.336;2022-10-22T12:50:54;1.48;;;0.80;;
34296;SDS011;20564;42.902;25.336;2022-10-22T12:53:29;2.30;;;0.77;;
34296;SDS011;20564;42.902;25.336;2022-10-22T12:56:06;2.08;;;0.52;;
34296;SDS011;20564;42.902;25.336;2022-10-22T12:58:42;2.65;;;0.73;;
34296;SDS011;20564;42.902;25.336;2022-10-22T13:01:10;1.65;;;0.70;;
34296;SDS011;20564;42.902;25.336;2022-10-22T13:03:40;1.58;;;0.50;;
34296;SDS011;20564;42.902;25.336;2022-10-22T13:08:56;2.47;;;0.75;;
34296;SDS011;20564;42.902;25.336;2022-10-22T13:12:04;3.83;;;1.33;;
34296;SDS011;20564;42.902;25.336;2022-10-22T13:14:34;2.67;;;1.15;;
34296;SDS011;20564;42.902;25.336;2022-10-22T13:17:11;3.97;;;1.77;;
34296;SDS011;20564;42.902;25.336;2022-10-22T13:19:45;5.60;;;2.20;;
34296;SDS011;20564;42.902;25.336;2022-10-22T13:22:31;7.22;;;2.53;;
34296;SDS011;20564;42.902;25.336;2022-10-22T13:25:35;4.55;;;1.60;;
34296;SDS011;20564;42.902;25.336;2022-10-22T13:28:00;3.67;;;1.55;;
34296;SDS011;20564;42.902;25.336;2022-10-22T13:30:36;5.97;;;1.98;;
34296;SDS011;20564;42.902;25.336;2022-10-22T13:33:05;3.30;;;1.40;;
34296;SDS011;20564;42.902;25.336;2022-10-22T13:38:20;5.57;;;1.40;;
34296;SDS011;20564;42.902;25.336;2022-10-22T13:40:49;4.32;;;1.20;;
34296;SDS011;20564;42.902;25.336;2022-10-22T13:43:17;7.15;;;1.70;;
34296;SDS011;20564;42.902;25.336;2022-10-22T13:45:45;5.20;;;2.08;;
34296;SDS011;20564;42.902;25.336;2022-10-22T13:48:14;5.32;;;1.67;;
34296;SDS011;20564;42.902;25.336;2022-10-22T13:50:44;5.45;;;2.10;;
34296;SDS011;20564;42.902;25.336;2022-10-22T13:53:34;5.50;;;2.05;;
34296;SDS011;20564;42.902;25.336;2022-10-22T13:56:01;3.95;;;1.85;;
34296;SDS011;20564;42.902;25.336;2022-10-22T13:58:28;4.80;;;1.48;;
34296;SDS011;20564;42.902;25.336;2022-10-22T14:03:31;3.58;;;1.42;;
34296;SDS011;20564;42.902;25.336;2022-10-22T14:06:00;4.35;;;1.92;;
34296;SDS011;20564;42.902;25.336;2022-10-22T14:08:27;3.15;;;1.65;;
34296;SDS011;20564;42.902;25.336;2022-10-22T14:10:54;3.28;;;1.60;;
34296;SDS011;20564;42.902;25.336;2022-10-22T14:13:21;4.50;;;1.92;;
34296;SDS011;20564;42.902;25.336;2022-10-22T14:15:48;2.83;;;1.33;;
34296;SDS011;20564;42.902;25.336;2022-10-22T14:18:26;2.17;;;0.98;;
34296;SDS011;20564;42.902;25.336;2022-10-22T14:20:57;2.25;;;1.00;;
34296;SDS011;20564;42.902;25.336;2022-10-22T14:23:27;2.40;;;1.08;;
34296;SDS011;20564;42.902;25.336;2022-10-22T14:25:56;3.30;;;1.35;;
34296;SDS011;20564;42.902;25.336;2022-10-22T14:28:25;3.05;;;1.90;;
34296;SDS011;20564;42.902;25.336;2022-10-22T14:30:52;5.15;;;1.88;;
34296;SDS011;20564;42.902;25.336;2022-10-22T14:33:22;2.92;;;1.30;;
34296;SDS011;20564;42.902;25.336;2022-10-22T14:35:56;2.90;;;1.50;;
34296;SDS011;20564;42.902;25.336;2022-10-22T14:40:51;3.83;;;1.50;;
34296;SDS011;20564;42.902;25.336;2022-10-22T14:43:22;4.80;;;1.67;;
34296;SDS011;20564;42.902;25.336;2022-10-22T14:45:54;5.15;;;2.03;;
34296;SDS011;20564;42.902;25.336;2022-10-22T14:48:21;3.75;;;1.92;;
34296;SDS011;20564;42.902;25.336;2022-10-22T14:50:49;7.88;;;2.90;;
34296;SDS011;20564;42.902;25.336;2022-10-22T14:53:17;4.22;;;2.10;;
34296;SDS011;20564;42.902;25.336;2022-10-22T14:55:44;5.85;;;2.65;;
34296;SDS011;20564;42.902;25.336;2022-10-22T14:58:13;6.97;;;2.80;;
34296;SDS011;20564;42.902;25.336;2022-10-22T15:03:08;5.40;;;2.53;;
34296;SDS011;20564;42.902;25.336;2022-10-22T15:05:40;3.83;;;1.95;;
34296;SDS011;20564;42.902;25.336;2022-10-22T15:08:10;6.68;;;2.40;;
34296;SDS011;20564;42.902;25.336;2022-10-22T15:10:38;21.48;;;2.90;;
34296;SDS011;20564;42.902;25.336;2022-10-22T15:13:07;4.95;;;2.00;;
34296;SDS011;20564;42.902;25.336;2022-10-22T15:18:08;3.83;;;2.05;;
34296;SDS011;20564;42.902;25.336;2022-10-22T15:20:35;6.35;;;2.65;;
34296;SDS011;20564;42.902;25.336;2022-10-22T15:23:02;4.20;;;1.90;;
34296;SDS011;20564;42.902;25.336;2022-10-22T15:25:29;4.18;;;2.08;;
34296;SDS011;20564;42.902;25.336;2022-10-22T15:27:57;3.65;;;1.67;;
34296;SDS011;20564;42.902;25.336;2022-10-22T15:30:34;6.20;;;2.15;;
34296;SDS011;20564;42.902;25.336;2022-10-22T15:33:01;3.90;;;1.52;;
34296;SDS011;20564;42.902;25.336;2022-10-22T15:35:28;4.03;;;1.60;;
34296;SDS011;20564;42.902;25.336;2022-10-22T15:37:55;2.00;;;1.27;;
34296;SDS011;20564;42.902;25.336;2022-10-22T15:40:22;3.33;;;1.85;;
34296;SDS011;20564;42.902;25.336;2022-10-22T15:42:49;5.57;;;1.85;;
34296;SDS011;20564;42.902;25.336;2022-10-22T15:45:16;3.83;;;1.83;;
34296;SDS011;20564;42.902;25.336;2022-10-22T15:47:44;2.72;;;1.33;;
34296;SDS011;20564;42.902;25.336;2022-10-22T15:50:13;3.63;;;1.55;;
34296;SDS011;20564;42.902;25.336;2022-10-22T15:52:40;1.40;;;1.15;;
34296;SDS011;20564;42.902;25.336;2022-10-22T15:55:07;4.75;;;1.65;;
34296;SDS011;20564;42.902;25.336;2022-10-22T15:57:36;3.47;;;1.10;;
34296;SDS011;20564;42.902;25.336;2022-10-22T16:00:05;3.40;;;1.45;;
34296;SDS011;20564;42.902;25.336;2022-10-22T16:02:33;6.47;;;2.05;;
34296;SDS011;20564;42.902;25.336;2022-10-22T16:05:01;2.22;;;1.20;;
34296;SDS011;20564;42.902;25.336;2022-10-22T16:07:28;3.05;;;0.98;;
34296;SDS011;20564;42.902;25.336;2022-10-22T16:09:58;3.33;;;1.58;;
34296;SDS011;20564;42.902;25.336;2022-10-22T16:12:27;6.75;;;1.73;;
34296;SDS011;20564;42.902;25.336;2022-10-22T16:14:54;2.97;;;1.35;;
34296;SDS011;20564;42.902;25.336;2022-10-22T16:17:21;3.23;;;1.50;;
34296;SDS011;20564;42.902;25.336;2022-10-22T16:19:48;3.83;;;1.95;;
34296;SDS011;20564;42.902;25.336;2022-10-22T16:22:15;8.40;;;3.03;;
34296;SDS011;20564;42.902;25.336;2022-10-22T16:24:42;7.53;;;2.67;;
34296;SDS011;20564;42.902;25.336;2022-10-22T16:27:09;17.00;;;7.05;;
34296;SDS011;20564;42.902;25.336;2022-10-22T16:29:37;17.38;;;8.00;;
34296;SDS011;20564;42.902;25.336;2022-10-22T16:32:07;11.55;;;5.50;;
34296;SDS011;20564;42.902;25.336;2022-10-22T16:34:34;9.20;;;3.45;;
34296;SDS011;20564;42.902;25.336;2022-10-22T16:37:01;6.90;;;3.47;;
34296;SDS011;20564;42.902;25.336;2022-10-22T16:39:30;7.38;;;3.00;;
34296;SDS011;20564;42.902;25.336;2022-10-22T16:41:57;6.83;;;2.43;;
34296;SDS011;20564;42.902;25.336;2022-10-22T16:44:23;7.00;;;2.80;;
34296;SDS011;20564;42.902;25.336;2022-10-22T16:46:50;6.13;;;2.60;;
34296;SDS011;20564;42.902;25.336;2022-10-22T16:49:18;7.05;;;3.15;;
34296;SDS011;20564;42.902;25.336;2022-10-22T16:51:45;6.10;;;2.87;;
34296;SDS011;20564;42.902;25.336;2022-10-22T16:54:12;7.65;;;2.53;;
34296;SDS011;20564;42.902;25.336;2022-10-22T16:56:41;7.97;;;4.28;;
34296;SDS011;20564;42.902;25.336;2022-10-22T16:59:08;12.43;;;6.57;;
34296;SDS011;20564;42.902;25.336;2022-10-22T17:01:35;9.25;;;4.25;;
34296;SDS011;20564;42.902;25.336;2022-10-22T17:04:06;10.13;;;4.40;;
34296;SDS011;20564;42.902;25.336;2022-10-22T17:06:34;9.30;;;3.83;;
34296;SDS011;20564;42.902;25.336;2022-10-22T17:09:01;7.27;;;3.33;;
34296;SDS011;20564;42.902;25.336;2022-10-22T17:11:28;11.45;;;3.78;;
34296;SDS011;20564;42.902;25.336;2022-10-22T17:14:02;8.98;;;4.03;;
34296;SDS011;20564;42.902;25.336;2022-10-22T17:16:29;10.25;;;4.85;;
34296;SDS011;20564;42.902;25.336;2022-10-22T17:18:56;8.02;;;3.88;;
34296;SDS011;20564;42.902;25.336;2022-10-22T17:21:24;8.68;;;4.35;;
34296;SDS011;20564;42.902;25.336;2022-10-22T17:23:55;9.90;;;4.35;;
34296;SDS011;20564;42.902;25.336;2022-10-22T17:26:22;9.93;;;4.78;;
34296;SDS011;20564;42.902;25.336;2022-10-22T17:28:52;9.20;;;4.20;;